Time;durP1;ratioP1;P1;durP2;ratioP2;P2;SDS_P1;SDS_P2;PMS_P1;PMS_P2;Temp;Humidity;BMP_temperature;BMP_pressure;BME280_temperature;BME280_humidity;BME280_pressure;Samples;Min_cycle;Max_cycle;Signal;HPM_P1;HPM_P2
2022/12/11 00:01:55;;;;;;;4.72;2.10;;;0.50;99.90;;;;;;5072945;28;20734;-80
2022/12/11 00:04:22;;;;;;;8.48;5.15;;;0.50;99.90;;;;;;5071715;28;20221;-79
2022/12/11 00:06:49;;;;;;;2.35;2.25;;;0.40;99.90;;;;;;5072372;28;20600;-78
2022/12/11 00:09:16;;;;;;;1.35;1.25;;;0.40;99.90;;;;;;5072928;28;20615;-80
2022/12/11 00:11:43;;;;;;;3.20;2.97;;;0.40;99.90;;;;;;5071931;28;20285;-80
2022/12/11 00:14:11;;;;;;;9.80;1.45;;;0.40;99.90;;;;;;5072021;28;20227;-79
2022/12/11 00:16:39;;;;;;;1.35;1.25;;;0.40;99.90;;;;;;5072548;28;20202;-80
2022/12/11 00:19:06;;;;;;;2.80;2.60;;;0.40;99.90;;;;;;5071421;28;20315;-79
2022/12/11 00:21:34;;;;;;;4.70;3.42;;;0.50;99.90;;;;;;5072210;28;20287;-79
2022/12/11 00:24:01;;;;;;;3.20;2.25;;;0.50;99.90;;;;;;5078963;28;20288;-78
2022/12/11 00:26:27;;;;;;;1.65;1.55;;;0.50;99.90;;;;;;5088588;28;20381;-79
2022/12/11 00:28:56;;;;;;;10.70;7.05;;;0.50;99.90;;;;;;5092331;28;20243;-79
2022/12/11 00:31:23;;;;;;;1.83;1.15;;;0.50;99.90;;;;;;5092192;28;20190;-79
2022/12/11 00:33:52;;;;;;;3.40;3.10;;;0.50;99.90;;;;;;5091610;28;20193;-78
2022/12/11 00:36:21;;;;;;;4.03;3.80;;;0.50;99.90;;;;;;5092150;28;20193;-78
2022/12/11 00:38:49;;;;;;;0.73;0.70;;;0.50;99.90;;;;;;5088949;28;20590;-78
2022/12/11 00:41:15;;;;;;;2.53;2.33;;;0.50;99.90;;;;;;5092090;28;20561;-80
2022/12/11 00:43:43;;;;;;;3.80;3.60;;;0.50;99.90;;;;;;5092005;28;20289;-79
2022/12/11 00:46:10;;;;;;;2.20;2.05;;;0.50;99.90;;;;;;5091275;28;20213;-76
2022/12/11 00:48:37;;;;;;;1.33;1.33;;;0.40;99.90;;;;;;5091826;28;20225;-79
2022/12/11 00:51:06;;;;;;;0.60;0.60;;;0.50;99.90;;;;;;5092261;28;20630;-80
2022/12/11 00:53:33;;;;;;;2.78;2.50;;;0.50;99.90;;;;;;5089337;28;20284;-79
2022/12/11 00:56:00;;;;;;;1.17;1.08;;;0.60;99.90;;;;;;5083913;28;20279;-79
2022/12/11 00:58:27;;;;;;;20.98;8.63;;;0.60;99.90;;;;;;5091882;28;20231;-80
2022/12/11 01:00:54;;;;;;;12.65;6.28;;;0.50;99.90;;;;;;5091930;28;20193;-80
2022/12/11 01:03:21;;;;;;;14.65;6.55;;;0.50;99.90;;;;;;5091731;28;20284;-80
2022/12/11 01:05:54;;;;;;;2.17;1.98;;;0.50;99.90;;;;;;5090984;28;20727;-77
2022/12/11 01:08:23;;;;;;;4.13;3.83;;;0.50;99.90;;;;;;5090499;28;20717;-77
2022/12/11 01:10:48;;;;;;;32.70;4.03;;;0.50;99.90;;;;;;5091963;28;20192;-79
2022/12/11 01:13:16;;;;;;;8.77;2.30;;;0.50;99.90;;;;;;5091695;28;20204;-80
2022/12/11 01:15:44;;;;;;;0.50;0.40;;;0.50;99.90;;;;;;5090723;28;20435;-79
2022/12/11 01:18:13;;;;;;;20.52;6.72;;;0.50;99.90;;;;;;5090932;28;20859;-77
2022/12/11 01:20:42;;;;;;;1.35;1.25;;;0.60;99.90;;;;;;5091833;28;20644;-79
2022/12/11 01:23:12;;;;;;;0.50;0.40;;;0.60;99.90;;;;;;5084620;28;20285;-78
2022/12/11 01:25:41;;;;;;;0.50;0.50;;;0.70;99.90;;;;;;5078994;28;20218;-80
2022/12/11 01:28:09;;;;;;;10.23;6.97;;;0.70;99.90;;;;;;5071701;28;20290;-79
2022/12/11 01:30:36;;;;;;;5.97;4.50;;;0.70;99.90;;;;;;5071968;28;20225;-79
2022/12/11 01:33:03;;;;;;;1.42;1.33;;;0.70;99.90;;;;;;5071636;28;20206;-78
2022/12/11 01:35:31;;;;;;;0.50;0.40;;;0.70;99.90;;;;;;5070637;28;20616;-79
2022/12/11 01:37:59;;;;;;;0.47;0.40;;;0.70;99.90;;;;;;5071708;28;20576;-77
2022/12/11 01:40:25;;;;;;;2.10;2.00;;;0.70;99.90;;;;;;5070742;28;20564;-80
2022/12/11 01:42:54;;;;;;;1.13;1.02;;;0.70;99.90;;;;;;5071620;28;20687;-78
2022/12/11 01:45:35;;;;;;;12.27;1.88;;;0.70;99.90;;;;;;5070611;28;20216;-79
2022/12/11 01:48:07;;;;;;;5.13;4.63;;;0.80;99.90;;;;;;5071196;28;20309;-79
2022/12/11 01:50:38;;;;;;;0.50;0.40;;;0.80;99.90;;;;;;5071162;28;20181;-79
2022/12/11 01:53:10;;;;;;;2.72;1.48;;;0.80;99.90;;;;;;5076626;28;20195;-78
2022/12/11 01:55:38;;;;;;;0.50;0.40;;;0.80;99.90;;;;;;5082272;28;20184;-79
2022/12/11 01:58:08;;;;;;;0.60;0.60;;;0.70;99.90;;;;;;5091562;28;20216;-78
2022/12/11 02:00:35;;;;;;;3.58;3.22;;;0.70;99.90;;;;;;5091475;28;20682;-79
2022/12/11 02:03:02;;;;;;;4.80;4.53;;;0.80;99.90;;;;;;5091274;28;20254;-79
2022/12/11 02:05:29;;;;;;;0.60;0.60;;;0.80;99.90;;;;;;5090497;28;20228;-81
2022/12/11 02:08:02;;;;;;;1.75;1.65;;;0.80;99.90;;;;;;5091300;28;20303;-79
2022/12/11 02:10:39;;;;;;;16.05;1.10;;;0.90;99.90;;;;;;5091618;28;20192;-78
2022/12/11 02:13:12;;;;;;;0.50;0.40;;;0.80;99.90;;;;;;5091392;28;20215;-77
2022/12/11 02:15:46;;;;;;;1.17;1.17;;;0.80;99.90;;;;;;5091501;28;20596;-79
2022/12/11 02:18:20;;;;;;;3.90;2.38;;;0.80;99.90;;;;;;5092168;28;20327;-78
2022/12/11 02:20:54;;;;;;;5.57;2.92;;;0.80;99.90;;;;;;5096493;28;20278;-78
2022/12/11 02:23:52;;;;;;;0.55;0.55;;;0.80;99.90;;;;;;5092806;28;20220;-79
2022/12/11 02:26:34;;;;;;;3.40;2.58;;;0.80;99.90;;;;;;5086019;28;20223;-78
2022/12/11 02:29:08;;;;;;;2.47;2.38;;;0.80;99.90;;;;;;5094974;28;20250;-74
2022/12/11 02:31:38;;;;;;;6.70;3.20;;;0.80;99.90;;;;;;5095031;28;20267;-79
2022/12/11 02:34:12;;;;;;;20.75;5.72;;;0.70;99.90;;;;;;5093956;28;20196;-79
2022/12/11 02:36:41;;;;;;;3.42;2.05;;;0.70;99.90;;;;;;5094555;28;20271;-78
2022/12/11 02:39:12;;;;;;;34.65;10.88;;;0.60;99.90;;;;;;5093497;28;20230;-78
2022/12/11 02:41:43;;;;;;;3.10;2.67;;;0.50;99.90;;;;;;5094307;28;20202;-79
2022/12/11 02:44:13;;;;;;;8.40;5.15;;;0.50;99.90;;;;;;5094005;28;20657;-76
2022/12/11 02:46:41;;;;;;;5.60;3.13;;;0.50;99.90;;;;;;5094537;28;20213;-78
2022/12/11 02:49:09;;;;;;;19.33;4.85;;;0.50;99.90;;;;;;5094177;28;20215;-79
2022/12/11 02:51:39;;;;;;;0.70;0.70;;;0.50;99.90;;;;;;5093988;28;20688;-79
2022/12/11 02:54:11;;;;;;;4.70;3.95;;;0.50;99.90;;;;;;5085733;28;20232;-78
2022/12/11 02:56:43;;;;;;;6.78;6.15;;;0.40;99.90;;;;;;5092052;28;20195;-78
2022/12/11 02:59:15;;;;;;;5.43;4.93;;;0.50;99.90;;;;;;5093965;28;20213;-78
2022/12/11 03:01:42;;;;;;;21.75;3.75;;;0.50;99.90;;;;;;5094340;28;20242;-78
2022/12/11 03:04:09;;;;;;;6.78;3.28;;;0.50;99.90;;;;;;5092824;28;20319;-76
2022/12/11 03:06:40;;;;;;;3.47;1.92;;;0.50;99.90;;;;;;5094055;28;20211;-79
2022/12/11 03:09:07;;;;;;;3.50;3.30;;;0.60;99.90;;;;;;5093974;28;20221;-78
2022/12/11 03:11:34;;;;;;;1.80;1.70;;;0.60;99.90;;;;;;5093974;28;20192;-79
2022/12/11 03:14:02;;;;;;;0.60;0.60;;;0.60;99.90;;;;;;5092649;28;20287;-79
2022/12/11 03:16:35;;;;;;;6.47;3.40;;;0.70;99.90;;;;;;5094046;28;20193;-78
2022/12/11 03:19:11;;;;;;;3.55;3.33;;;0.70;99.90;;;;;;5093240;28;20709;-76
2022/12/11 03:21:44;;;;;;;5.90;2.95;;;0.70;99.90;;;;;;5093932;28;20253;-78
2022/12/11 03:24:15;;;;;;;3.20;3.00;;;0.70;99.90;;;;;;5084650;28;20193;-79
2022/12/11 03:26:45;;;;;;;2.05;1.95;;;0.70;99.90;;;;;;5092409;28;20216;-78
2022/12/11 03:29:19;;;;;;;0.70;0.70;;;0.70;99.90;;;;;;5093745;28;20305;-78
2022/12/11 03:31:52;;;;;;;6.45;4.95;;;0.70;99.90;;;;;;5093197;28;20307;-78
2022/12/11 03:34:23;;;;;;;3.38;2.95;;;0.70;99.90;;;;;;5092086;28;20669;-78
2022/12/11 03:36:52;;;;;;;0.50;0.50;;;0.70;99.90;;;;;;5093673;28;20227;-78
2022/12/11 03:39:24;;;;;;;3.00;1.75;;;0.70;99.90;;;;;;5092143;28;20793;-80
2022/12/11 03:41:53;;;;;;;0.50;0.50;;;0.70;99.90;;;;;;5093359;28;20287;-81
2022/12/11 03:44:22;;;;;;;3.55;2.17;;;0.80;99.90;;;;;;5092663;28;20557;-79
2022/12/11 03:46:52;;;;;;;2.15;2.05;;;0.80;99.90;;;;;;5093404;28;20221;-77
2022/12/11 03:49:23;;;;;;;1.88;1.77;;;0.80;99.90;;;;;;5092694;28;20303;-77
2022/12/11 03:51:53;;;;;;;1.60;1.45;;;0.80;99.90;;;;;;5093548;28;20176;-80
2022/12/11 03:54:20;;;;;;;1.40;1.35;;;0.80;99.90;;;;;;5082778;28;20194;-81
2022/12/11 03:56:50;;;;;;;0.50;0.40;;;0.80;99.90;;;;;;5092639;28;20271;-79
2022/12/11 03:59:17;;;;;;;0.50;0.40;;;0.80;99.90;;;;;;5093296;28;20238;-79
2022/12/11 04:01:44;;;;;;;5.60;3.83;;;0.80;99.90;;;;;;5093644;28;20590;-79
2022/12/11 04:04:13;;;;;;;0.50;0.43;;;0.80;99.90;;;;;;5091850;28;20196;-78
2022/12/11 04:06:40;;;;;;;0.50;0.40;;;0.90;99.90;;;;;;5092552;28;20338;-79
2022/12/11 04:09:07;;;;;;;11.25;3.20;;;0.90;99.90;;;;;;5092991;28;20224;-80
2022/12/11 04:11:37;;;;;;;2.63;2.53;;;0.90;99.90;;;;;;5093037;28;20634;-79
2022/12/11 04:16:50;;;;;;;3.15;2.22;;;0.80;99.90;;;;;;5093148;28;20686;-79
2022/12/11 04:24:49;;;;;;;16.48;14.55;;;0.80;99.90;;;;;;5082379;28;20192;-78
2022/12/11 04:27:47;;;;;;;4.68;4.32;;;0.80;99.90;;;;;;5092914;28;20231;-79
2022/12/11 04:30:03;;;;;;;1.50;1.40;;;0.80;99.90;;;;;;5092018;28;20206;-78
2022/12/11 04:32:30;;;;;;;17.05;4.80;;;0.80;99.90;;;;;;5092720;28;20290;-79
2022/12/11 04:34:58;;;;;;;5.40;2.22;;;0.70;99.90;;;;;;5091565;28;20283;-81
2022/12/11 04:37:25;;;;;;;1.90;1.80;;;0.80;99.90;;;;;;5092550;28;20212;-80
2022/12/11 04:39:52;;;;;;;3.08;2.58;;;0.80;99.90;;;;;;5090840;28;20200;-80
2022/12/11 04:42:18;;;;;;;0.50;0.40;;;0.80;99.90;;;;;;5092245;28;20298;-78
2022/12/11 04:44:45;;;;;;;5.25;4.75;;;0.80;99.90;;;;;;5091890;28;20207;-79
2022/12/11 04:47:12;;;;;;;6.47;4.82;;;0.80;99.90;;;;;;5092370;28;20223;-79
2022/12/11 04:49:39;;;;;;;2.00;1.90;;;0.80;99.90;;;;;;5092161;28;20291;-79
2022/12/11 04:52:07;;;;;;;0.82;0.80;;;0.80;99.90;;;;;;5091995;28;20265;-76
2022/12/11 04:54:34;;;;;;;1.45;1.13;;;0.80;99.90;;;;;;5081376;28;20659;-82
2022/12/11 04:57:01;;;;;;;6.15;5.72;;;0.90;99.90;;;;;;5092106;28;20671;-78
2022/12/11 04:59:27;;;;;;;0.50;0.50;;;0.90;99.90;;;;;;5092337;28;20193;-78
2022/12/11 05:01:54;;;;;;;6.28;2.80;;;1.00;99.90;;;;;;5092259;28;20262;-81
2022/12/11 05:04:21;;;;;;;3.65;3.20;;;1.00;99.90;;;;;;5091153;28;20196;-80
2022/12/11 05:06:49;;;;;;;0.50;0.40;;;1.00;99.90;;;;;;5091799;28;20220;-79
2022/12/11 05:09:18;;;;;;;1.15;1.05;;;1.00;99.90;;;;;;5092106;28;20702;-79
2022/12/11 05:11:44;;;;;;;2.60;2.45;;;0.90;99.90;;;;;;5092148;28;20633;-79
2022/12/11 05:14:11;;;;;;;0.95;0.80;;;1.00;99.90;;;;;;5091568;28;20193;-81
2022/12/11 05:16:38;;;;;;;0.85;0.85;;;0.90;99.90;;;;;;5091989;28;20276;-79
2022/12/11 05:19:05;;;;;;;17.40;2.15;;;0.90;99.90;;;;;;5091619;28;20223;-80
2022/12/11 05:21:32;;;;;;;0.80;0.80;;;0.90;99.90;;;;;;5092286;28;20722;-80
2022/12/11 05:23:59;;;;;;;15.18;4.97;;;1.00;99.90;;;;;;5089514;28;20200;-79
2022/12/11 05:26:27;;;;;;;8.52;4.25;;;0.90;99.90;;;;;;5075386;28;20224;-78
2022/12/11 05:28:55;;;;;;;1.35;1.25;;;0.90;99.90;;;;;;5071519;28;20241;-79
2022/12/11 05:31:24;;;;;;;4.15;3.90;;;0.90;99.90;;;;;;5072092;28;20196;-79
2022/12/11 05:33:51;;;;;;;1.38;1.38;;;0.90;99.90;;;;;;5071683;28;20296;-80
2022/12/11 05:36:20;;;;;;;1.75;1.67;;;0.90;99.90;;;;;;5071606;28;20212;-79
2022/12/11 05:38:47;;;;;;;2.40;2.30;;;0.90;99.90;;;;;;5070541;28;20212;-80
2022/12/11 05:41:18;;;;;;;1.15;1.05;;;0.90;99.90;;;;;;5071879;28;20223;-79
2022/12/11 05:43:47;;;;;;;6.45;4.15;;;0.90;99.90;;;;;;5071348;28;20250;-78
2022/12/11 05:46:16;;;;;;;2.47;1.17;;;0.90;99.90;;;;;;5070971;28;20213;-80
2022/12/11 05:48:43;;;;;;;2.55;1.70;;;0.90;99.90;;;;;;5071580;28;20583;-78
2022/12/11 05:51:11;;;;;;;0.93;0.93;;;1.00;99.90;;;;;;5071549;28;20291;-80
2022/12/11 05:53:38;;;;;;;2.63;2.42;;;1.00;99.90;;;;;;5079882;28;20728;-80
2022/12/11 05:56:08;;;;;;;7.93;4.88;;;1.00;99.90;;;;;;5087910;28;20766;-79
2022/12/11 05:58:35;;;;;;;2.65;2.55;;;0.90;99.90;;;;;;5095651;28;20219;-80
2022/12/11 06:01:07;;;;;;;0.70;0.70;;;0.90;99.90;;;;;;5095672;28;20288;-79
2022/12/11 06:03:34;;;;;;;0.55;0.55;;;0.90;99.90;;;;;;5095580;28;20184;-79
2022/12/11 06:06:02;;;;;;;3.63;2.42;;;0.90;99.90;;;;;;5094888;28;20595;-78
2022/12/11 06:08:29;;;;;;;1.13;1.02;;;0.90;99.90;;;;;;5095602;28;20302;-78
2022/12/11 06:10:56;;;;;;;24.77;7.40;;;1.00;99.90;;;;;;5095584;28;20292;-79
2022/12/11 06:13:23;;;;;;;3.72;3.42;;;0.90;99.90;;;;;;5095502;28;20734;-79
2022/12/11 06:15:50;;;;;;;2.45;2.25;;;0.90;99.90;;;;;;5094405;28;20320;-78
2022/12/11 06:18:18;;;;;;;0.63;0.63;;;0.90;99.90;;;;;;5094981;28;20239;-78
2022/12/11 06:20:45;;;;;;;1.88;1.77;;;0.90;99.90;;;;;;5094781;28;20687;-79
2022/12/11 06:23:12;;;;;;;2.15;2.05;;;0.90;99.90;;;;;;5091506;28;20284;-80
2022/12/11 06:25:39;;;;;;;9.65;5.72;;;1.00;99.90;;;;;;5085701;28;20203;-79
2022/12/11 06:28:06;;;;;;;1.67;1.67;;;1.00;99.90;;;;;;5094699;28;20223;-79
2022/12/11 06:30:33;;;;;;;1.42;1.35;;;0.90;99.90;;;;;;5095021;28;20237;-79
2022/12/11 06:33:00;;;;;;;8.13;1.58;;;0.90;99.90;;;;;;5095374;28;20228;-78
2022/12/11 06:35:29;;;;;;;0.98;0.98;;;0.90;99.90;;;;;;5093376;28;20280;-78
2022/12/11 06:37:55;;;;;;;4.10;3.22;;;0.90;99.90;;;;;;5095212;28;20299;-79
2022/12/11 06:40:22;;;;;;;5.00;4.55;;;0.90;99.90;;;;;;5093420;28;20290;-79
2022/12/11 06:42:49;;;;;;;2.33;2.17;;;0.90;99.90;;;;;;5094878;28;20207;-78
2022/12/11 06:45:16;;;;;;;7.93;5.95;;;0.90;99.90;;;;;;5094223;28;20287;-78
2022/12/11 06:47:43;;;;;;;0.50;0.40;;;0.90;99.90;;;;;;5094680;28;20247;-77
2022/12/11 06:50:10;;;;;;;2.97;2.60;;;0.90;99.90;;;;;;5094675;28;20656;-79
2022/12/11 06:52:38;;;;;;;3.20;2.97;;;0.90;99.90;;;;;;5091930;28;20563;-78
2022/12/11 06:55:06;;;;;;;7.03;2.33;;;0.90;99.90;;;;;;5085285;28;20788;-79
2022/12/11 06:57:33;;;;;;;4.00;2.47;;;0.90;99.90;;;;;;5094704;28;20311;-78
2022/12/11 07:00:00;;;;;;;0.82;0.80;;;0.90;99.90;;;;;;5095271;28;20394;-80
2022/12/11 07:02:27;;;;;;;0.50;0.40;;;0.90;99.90;;;;;;5094695;28;20670;-79
2022/12/11 07:04:53;;;;;;;0.80;0.80;;;0.90;99.90;;;;;;5096461;28;20192;-79
2022/12/11 07:07:21;;;;;;;20.73;6.05;;;0.90;99.90;;;;;;5098879;28;20701;-80
2022/12/11 07:09:49;;;;;;;1.73;1.63;;;0.90;99.90;;;;;;5098452;28;20198;-78
2022/12/11 07:12:17;;;;;;;0.60;0.60;;;0.90;99.90;;;;;;5098719;28;20223;-79
2022/12/11 07:14:44;;;;;;;14.35;3.15;;;0.90;99.90;;;;;;5098931;28;20738;-78
2022/12/11 07:17:11;;;;;;;2.25;2.15;;;0.90;99.90;;;;;;5097797;28;20247;-77
2022/12/11 07:19:39;;;;;;;0.50;0.40;;;0.90;99.90;;;;;;5097041;28;20257;-77
2022/12/11 07:22:06;;;;;;;4.72;2.95;;;0.90;99.90;;;;;;5096351;28;20253;-78
2022/12/11 07:24:33;;;;;;;2.45;1.88;;;0.90;99.90;;;;;;5084439;28;20200;-78
2022/12/11 07:27:01;;;;;;;1.90;1.90;;;0.90;99.90;;;;;;5096409;28;20301;-77
2022/12/11 07:29:28;;;;;;;0.50;0.50;;;0.90;99.90;;;;;;5098658;28;20203;-78
2022/12/11 07:31:55;;;;;;;1.95;1.88;;;0.90;99.90;;;;;;5098582;28;20196;-77
2022/12/11 07:34:21;;;;;;;1.42;1.33;;;0.90;99.90;;;;;;5095492;28;20312;-78
2022/12/11 07:36:48;;;;;;;1.23;1.23;;;0.90;99.90;;;;;;5097932;28;20721;-79
2022/12/11 07:39:15;;;;;;;2.45;2.35;;;0.80;99.90;;;;;;5094883;28;20216;-78
2022/12/11 07:41:42;;;;;;;2.13;2.03;;;0.80;99.90;;;;;;5095669;28;20193;-77
2022/12/11 07:44:10;;;;;;;0.50;0.40;;;0.90;99.90;;;;;;5092971;28;20207;-79
2022/12/11 07:46:37;;;;;;;0.50;0.40;;;0.90;99.90;;;;;;5093002;28;20223;-79
2022/12/11 07:49:06;;;;;;;3.45;3.20;;;0.90;99.90;;;;;;5092811;28;20304;-73
2022/12/11 07:51:35;;;;;;;3.50;2.38;;;0.90;99.90;;;;;;5093307;28;20544;-78
2022/12/11 07:54:03;;;;;;;3.42;3.33;;;0.90;99.90;;;;;;5084990;28;20218;-78
2022/12/11 07:56:31;;;;;;;10.63;3.90;;;1.00;99.90;;;;;;5089325;28;20199;-78
2022/12/11 07:58:59;;;;;;;5.55;5.03;;;1.00;99.90;;;;;;5093004;28;20212;-79
2022/12/11 08:01:30;;;;;;;1.88;1.77;;;1.00;99.90;;;;;;5092855;28;20257;-79
2022/12/11 08:03:57;;;;;;;3.50;3.30;;;1.00;99.90;;;;;;5072496;28;20189;-78
2022/12/11 08:06:27;;;;;;;8.38;7.82;;;0.90;99.90;;;;;;5073918;28;20289;-78
2022/12/11 08:08:54;;;;;;;1.40;0.60;;;0.90;99.90;;;;;;5072624;28;20204;-77
2022/12/11 08:11:21;;;;;;;11.75;4.25;;;0.90;99.90;;;;;;5072747;28;20229;-77
2022/12/11 08:13:48;;;;;;;5.38;4.88;;;0.90;99.90;;;;;;5067670;28;20237;-77
2022/12/11 08:16:16;;;;;;;4.85;4.53;;;0.80;99.90;;;;;;5083560;28;20192;-76
2022/12/11 08:18:45;;;;;;;22.92;3.75;;;0.80;99.90;;;;;;5091746;28;20742;-77
2022/12/11 08:21:15;;;;;;;0.50;0.43;;;0.80;99.90;;;;;;5082393;22;20218;-74
2022/12/11 08:23:42;;;;;;;5.15;4.45;;;0.80;99.90;;;;;;5050189;28;20202;-74
2022/12/11 08:26:11;;;;;;;0.73;0.73;;;0.80;99.90;;;;;;5051437;28;20203;-74
2022/12/11 08:28:38;;;;;;;2.15;2.05;;;0.80;99.90;;;;;;5051923;28;20561;-75
2022/12/11 08:31:07;;;;;;;0.50;0.40;;;0.80;99.90;;;;;;5052370;28;20218;-74
2022/12/11 08:33:34;;;;;;;1.73;1.55;;;0.80;99.90;;;;;;5052246;28;20281;-74
2022/12/11 08:36:04;;;;;;;1.67;1.58;;;0.90;99.90;;;;;;5050409;28;20202;-75
2022/12/11 08:38:31;;;;;;;3.05;2.85;;;0.90;99.90;;;;;;5049811;28;20591;-74
2022/12/11 08:40:58;;;;;;;4.63;3.38;;;0.90;99.90;;;;;;5052264;28;20304;-74
2022/12/11 08:43:24;;;;;;;3.40;3.10;;;0.90;99.90;;;;;;5051669;28;20766;-74
2022/12/11 08:45:51;;;;;;;5.72;3.72;;;0.90;99.90;;;;;;5051052;28;20200;-74
2022/12/11 08:48:18;;;;;;;0.60;0.60;;;0.90;99.90;;;;;;5051046;28;20313;-74
2022/12/11 08:50:45;;;;;;;3.65;3.42;;;0.90;99.90;;;;;;5050707;28;20223;-74
2022/12/11 08:53:13;;;;;;;20.33;2.15;;;0.90;99.90;;;;;;5051507;28;20193;-74
2022/12/11 08:55:40;;;;;;;0.50;0.47;;;0.90;99.90;;;;;;5051044;28;20289;-74
2022/12/11 08:58:07;;;;;;;5.28;5.00;;;1.00;99.90;;;;;;5051253;28;20201;-75
2022/12/11 09:00:34;;;;;;;2.55;1.77;;;1.00;99.90;;;;;;5051492;28;20704;-74
2022/12/11 09:03:01;;;;;;;0.50;0.40;;;1.00;99.90;;;;;;5051363;28;20197;-75
2022/12/11 09:05:29;;;;;;;4.95;4.35;;;1.00;99.90;;;;;;5050723;28;20202;-74
2022/12/11 09:07:58;;;;;;;3.50;3.20;;;1.00;99.90;;;;;;5051241;28;20302;-74
2022/12/11 09:10:26;;;;;;;0.50;0.40;;;1.00;99.90;;;;;;5051461;28;20219;-74
2022/12/11 09:12:53;;;;;;;0.50;0.40;;;1.00;99.90;;;;;;5051439;28;20300;-74
2022/12/11 09:15:19;;;;;;;1.92;1.83;;;1.10;99.90;;;;;;5050377;28;20203;-74
2022/12/11 09:17:46;;;;;;;4.20;1.63;;;1.10;99.90;;;;;;5051308;28;20281;-74
2022/12/11 09:20:13;;;;;;;9.77;9.30;;;1.10;99.90;;;;;;5050558;28;20237;-75
2022/12/11 09:22:41;;;;;;;1.02;1.02;;;1.10;99.90;;;;;;5049223;28;20288;-75
2022/12/11 09:25:09;;;;;;;1.00;1.00;;;1.10;99.90;;;;;;5050282;28;20214;-74
2022/12/11 09:27:37;;;;;;;3.70;3.42;;;1.10;99.90;;;;;;5051137;28;20248;-75
2022/12/11 09:30:05;;;;;;;2.15;1.95;;;1.10;99.90;;;;;;5053052;28;20619;-74
2022/12/11 09:32:32;;;;;;;0.50;0.40;;;1.20;99.90;;;;;;5055014;28;20201;-75
2022/12/11 09:34:58;;;;;;;2.38;1.70;;;1.20;99.90;;;;;;5054579;28;20288;-75
2022/12/11 09:37:25;;;;;;;1.60;1.48;;;1.30;99.90;;;;;;5055028;28;20664;-74
2022/12/11 09:39:52;;;;;;;2.65;1.35;;;1.30;99.90;;;;;;5053475;28;20201;-74
2022/12/11 09:42:26;;;;;;;1.20;1.20;;;1.30;99.90;;;;;;5054867;28;20204;-75
2022/12/11 09:44:57;;;;;;;2.75;2.55;;;1.30;99.90;;;;;;5054125;28;20797;-74
2022/12/11 09:47:31;;;;;;;2.58;2.47;;;1.40;99.90;;;;;;5054608;28;20232;-74
2022/12/11 09:50:06;;;;;;;0.50;0.40;;;1.30;99.90;;;;;;5055119;28;20269;-74
2022/12/11 09:52:37;;;;;;;0.50;0.40;;;1.40;99.90;;;;;;5053808;28;20272;-74
2022/12/11 09:55:14;;;;;;;0.50;0.40;;;1.30;99.90;;;;;;5053734;28;20273;-75
2022/12/11 09:57:49;;;;;;;0.50;0.40;;;1.30;99.90;;;;;;5055111;28;20179;-74
2022/12/11 10:00:26;;;;;;;6.00;4.43;;;1.30;99.90;;;;;;5054521;28;20305;-74
2022/12/11 10:03:29;;;;;;;1.50;1.50;;;1.30;99.90;;;;;;5055126;28;20185;-74
2022/12/11 10:06:02;;;;;;;2.05;1.85;;;1.30;99.90;;;;;;4972109;28;20299;-74
2022/12/11 10:08:38;;;;;;;3.20;1.30;;;1.40;99.90;;;;;;5042371;28;20241;-75
2022/12/11 10:11:22;;;;;;;0.50;0.40;;;1.30;99.90;;;;;;5054759;28;20217;-75
2022/12/11 10:13:55;;;;;;;8.23;4.30;;;1.30;99.90;;;;;;5054534;28;20244;-74
2022/12/11 10:16:33;;;;;;;2.78;1.67;;;1.30;99.90;;;;;;5054463;28;20216;-75
2022/12/11 10:19:00;;;;;;;2.47;2.38;;;1.40;99.90;;;;;;5054424;28;20201;-74
2022/12/11 10:21:34;;;;;;;4.53;4.32;;;1.40;99.90;;;;;;5053568;28;20225;-74
2022/12/11 10:24:04;;;;;;;0.63;0.63;;;1.40;99.90;;;;;;5039352;28;20280;-74
2022/12/11 10:26:31;;;;;;;1.15;1.15;;;1.40;99.90;;;;;;5054209;28;20640;-74
2022/12/11 10:29:00;;;;;;;3.08;2.88;;;1.40;99.90;;;;;;5054303;28;20226;-74
2022/12/11 10:31:38;;;;;;;4.97;3.53;;;1.40;99.90;;;;;;5054395;28;20219;-74
2022/12/11 10:34:10;;;;;;;1.52;1.45;;;1.40;99.90;;;;;;5053643;28;20669;-75
2022/12/11 10:36:39;;;;;;;0.60;0.60;;;1.40;99.90;;;;;;5053430;28;20655;-75
2022/12/11 10:39:13;;;;;;;0.50;0.50;;;1.40;99.90;;;;;;5052581;28;20200;-74
2022/12/11 10:41:42;;;;;;;4.47;3.90;;;1.50;99.90;;;;;;5053499;28;20308;-74
2022/12/11 10:44:18;;;;;;;2.47;2.35;;;1.50;99.90;;;;;;5053506;28;20206;-74
2022/12/11 10:46:47;;;;;;;0.50;0.50;;;1.40;99.90;;;;;;5054190;28;20198;-74
2022/12/11 10:49:25;;;;;;;2.15;2.03;;;1.40;99.90;;;;;;5053489;28;20230;-74
2022/12/11 10:51:54;;;;;;;2.80;0.95;;;1.40;99.90;;;;;;5052932;28;20301;-74
2022/12/11 10:54:31;;;;;;;2.67;2.47;;;1.40;99.90;;;;;;5053111;28;20298;-75
2022/12/11 10:56:58;;;;;;;0.88;0.88;;;1.40;99.90;;;;;;5053532;28;20615;-74
2022/12/11 10:59:34;;;;;;;1.20;0.77;;;1.40;99.90;;;;;;5053560;28;20194;-74
2022/12/11 11:02:03;;;;;;;1.60;1.50;;;1.40;99.90;;;;;;5053920;28;20604;-74
2022/12/11 11:04:33;;;;;;;3.35;0.98;;;1.30;99.90;;;;;;5053029;28;20226;-74
2022/12/11 11:07:11;;;;;;;0.80;0.80;;;1.30;99.90;;;;;;5052909;28;20194;-74
2022/12/11 11:09:38;;;;;;;1.85;1.75;;;1.30;99.90;;;;;;5053634;28;20560;-76
2022/12/11 11:12:17;;;;;;;0.75;0.75;;;1.30;99.90;;;;;;5053155;28;20218;-74
2022/12/11 11:14:44;;;;;;;5.32;2.63;;;1.30;99.90;;;;;;5052789;28;20273;-74
2022/12/11 11:17:15;;;;;;;3.53;2.13;;;1.40;99.90;;;;;;5053387;28;20200;-74
2022/12/11 11:19:47;;;;;;;1.35;1.25;;;1.40;99.90;;;;;;5053665;28;20184;-74
2022/12/11 11:22:16;;;;;;;8.00;2.88;;;1.30;99.90;;;;;;5052008;28;20201;-74
2022/12/11 11:24:45;;;;;;;1.17;1.08;;;1.30;99.90;;;;;;5051985;28;20226;-74
2022/12/11 11:27:14;;;;;;;4.50;2.35;;;1.40;99.90;;;;;;5052915;28;20212;-75
2022/12/11 11:29:42;;;;;;;0.50;0.40;;;1.40;99.90;;;;;;5053054;28;20210;-74
2022/12/11 11:32:19;;;;;;;3.97;3.17;;;1.50;99.90;;;;;;5052960;28;20726;-75
2022/12/11 11:34:46;;;;;;;0.50;0.40;;;1.60;99.90;;;;;;5052467;28;20204;-74
2022/12/11 11:37:24;;;;;;;2.55;1.88;;;1.60;99.90;;;;;;5052395;28;20202;-74
2022/12/11 11:39:56;;;;;;;0.50;0.40;;;1.60;99.90;;;;;;5051250;28;20202;-74
2022/12/11 11:42:29;;;;;;;0.50;0.40;;;1.70;99.90;;;;;;5052772;28;20609;-73
2022/12/11 11:45:03;;;;;;;8.05;7.38;;;1.80;99.90;;;;;;5051953;28;20269;-74
2022/12/11 11:47:37;;;;;;;0.50;0.50;;;1.90;99.90;;;;;;5053149;28;20264;-74
2022/12/11 11:50:11;;;;;;;0.50;0.50;;;1.90;99.90;;;;;;5052884;28;20614;-74
2022/12/11 11:52:44;;;;;;;0.70;0.70;;;2.00;99.90;;;;;;5050858;28;20190;-74
2022/12/11 11:55:18;;;;;;;0.50;0.40;;;2.00;99.90;;;;;;5051759;28;20640;-74
2022/12/11 11:57:51;;;;;;;0.63;0.60;;;2.10;99.90;;;;;;5052714;28;20697;-74
2022/12/11 12:00:21;;;;;;;0.50;0.40;;;2.10;99.90;;;;;;5052494;28;20275;-75
2022/12/11 12:02:53;;;;;;;1.30;1.20;;;2.20;99.90;;;;;;5043746;28;20285;-74
2022/12/11 12:05:26;;;;;;;0.77;0.77;;;2.10;99.90;;;;;;5051110;28;20216;-74
2022/12/11 12:08:09;;;;;;;3.83;3.53;;;2.10;99.90;;;;;;5052241;28;20736;-74
2022/12/11 12:10:44;;;;;;;6.20;1.60;;;2.10;99.90;;;;;;5052170;28;20228;-74
2022/12/11 12:13:25;;;;;;;0.73;0.73;;;2.10;99.90;;;;;;5052207;28;20236;-74
2022/12/11 12:15:56;;;;;;;2.92;2.70;;;2.00;99.90;;;;;;5051417;28;20205;-74
2022/12/11 12:18:31;;;;;;;3.42;2.83;;;2.00;99.90;;;;;;5052355;28;20290;-74
2022/12/11 12:21:06;;;;;;;0.50;0.50;;;2.00;99.90;;;;;;5051512;28;20222;-74
2022/12/11 12:23:49;;;;;;;0.50;0.40;;;1.90;99.90;;;;;;5052132;28;20200;-74
2022/12/11 12:26:25;;;;;;;1.05;1.05;;;1.90;99.90;;;;;;5051408;28;20214;-74
2022/12/11 12:29:02;;;;;;;0.70;0.70;;;1.90;99.90;;;;;;5051810;28;20230;-74
2022/12/11 12:31:46;;;;;;;0.50;0.40;;;1.90;99.90;;;;;;5051725;28;20218;-75
2022/12/11 12:34:22;;;;;;;0.60;0.60;;;1.80;99.90;;;;;;5045802;28;20212;-75
2022/12/11 12:36:58;;;;;;;1.75;1.67;;;1.80;99.90;;;;;;5051854;28;20186;-74
2022/12/11 12:39:42;;;;;;;4.72;2.97;;;1.90;99.90;;;;;;5050276;28;20195;-75
2022/12/11 12:42:15;;;;;;;0.82;0.82;;;1.90;99.90;;;;;;5051813;28;20210;-75
2022/12/11 12:44:53;;;;;;;1.50;1.50;;;2.00;99.90;;;;;;5051130;28;20221;-74
2022/12/11 12:47:21;;;;;;;0.50;0.40;;;2.00;99.90;;;;;;5051840;28;20185;-74
2022/12/11 12:49:53;;;;;;;2.08;1.98;;;2.00;99.90;;;;;;5051409;28;20214;-74
2022/12/11 12:52:23;;;;;;;0.70;0.63;;;2.10;99.90;;;;;;5051266;28;20188;-75
2022/12/11 12:55:14;;;;;;;0.50;0.40;;;2.10;99.90;;;;;;5051080;28;20595;-75
2022/12/11 12:57:44;;;;;;;2.45;2.35;;;2.20;99.90;;;;;;5051497;28;20578;-74
2022/12/11 13:00:12;;;;;;;0.50;0.40;;;2.30;99.90;;;;;;5051110;28;20762;-74
2022/12/11 13:02:49;;;;;;;0.60;0.60;;;2.30;99.90;;;;;;5043537;28;20202;-74
2022/12/11 13:05:23;;;;;;;0.50;0.50;;;2.40;99.90;;;;;;5050661;28;20560;-74
2022/12/11 13:07:52;;;;;;;0.50;0.40;;;2.40;99.90;;;;;;5051433;28;20292;-74
2022/12/11 13:10:31;;;;;;;2.15;2.05;;;2.50;99.90;;;;;;5051602;28;20218;-75
2022/12/11 13:12:59;;;;;;;1.15;1.15;;;2.40;99.90;;;;;;5051396;28;20700;-74
2022/12/11 13:15:37;;;;;;;0.85;0.85;;;2.40;99.90;;;;;;5050976;28;20305;-75
2022/12/11 13:18:33;;;;;;;2.40;2.30;;;2.40;99.90;;;;;;5051080;28;20276;-73